Pagina principale
METAR-TAF:

METAR-TAF

Aeroporti :

Aeroporto di Rabat-Salé

Rabat, Marocco

latitudine: 34-03N, longitudine: 006-46W, altezza: 84 m

Osservazione

Il bollettino è stato emesso 16 minuti fa, alle 01:00 UTC
Vento 5 kt da ovest/sud-ovest
Temperature 19°C
Umidità 88%
Pressione 1009 hPa
Visibilità: 6000 m
Nubi sparse ad un'altezza di 1600 ft

METAR: GMME 310100Z 25005KT 6000 SCT016 19/17 Q1009 NOSIG

Ora: 02:16 (01:16 UTC)

Previsione

Il bollettino è stato emesso 2 ore e 16 minuti fa, alle 23:00 UTC
Previsione valida dal 31 alle 00 UTC al 01 alle 06 UTC
Vento 6 kt da ovest
Visibilità: 6000 m
Nubi sparse ad un'altezza di 1600 ft
Probabilità 40% :
Temporaneamente
dal 31 alle 04 UTC al 31 alle 10 UTC
Vento 16 kt da sud/sud-ovest
Visibilità: 4000 m
Nuvoloso ad un'altezza di 1300 ft
Nuvoloso ad un'altezza di 1600 ft
pioggia

TAF: GMME 302300Z 3100/0106 26006KT 6000 SCT016 PROB40 TEMPO 3104/3110 20016KT 4000 RA BKN013 BKN016

Osservazioni e previsioni meteorologiche di più di 4000 aeroporti (messaggi METAR e TAF).

Le stazioni disponibili sono rappresentate dai dischi gialli e rossi sulla carta.

Puntare il mouse per vedere il nome della stazione.

Clicca sopra per visualizzare le osservazioni e previsioni meteorologiche.

Per cambiare la mappa : fare clic sui pulsanti verdi con una croce nera per ingrandire, il pulsante verde con un trattino per diminuire, o sulla freccia verde per le mappe adiacenti.


METAR-TAF: